• Join FlightAware (Why Join?)
  • Login
  • US Flag 
10:37PM EDT


 

Airport Tracker/Info


-or-


 

Live Flight TrackerFlight Track Log ✈ ECJ21 ✈ 23-Apr-2013 ✈ KTEB - KABE

Flight Track Log - Related Links

Times and Time Zones

All times are in EDT time to prevent confusion due to time zone crossing. See the ECJ21 flight status page for this flight to view local times or setup timezone preferences in your user account.

Time Position Orientation Groundspeed Altitude Reporting Facility
EDT Latitude Longitude Course Direction KTS MPH feet Rate Location/Type
02:01PM 40.9000 -74.1500 270° West 265 305 3,400  Level New York TRACON
02:02PM 40.8667 -74.2333 242° Southwest 258 297 6,100 1,800 Climbing New York TRACON
02:03PM 40.8167 -74.3167 232° Southwest 282 325 7,000 420 Climbing New York TRACON
02:04PM 40.7667 -74.4000 232° Southwest 288 331 7,000  Level New York TRACON
02:05PM 40.7167 -74.4833 232° Southwest 283 326 7,000  Level New York TRACON
02:07PM 40.6666 -74.5671 232° Southwest  Level FlightAware Approximate
02:14PM 40.5423 -75.1119 261° West  Level FlightAware Approximate
02:15PM 40.5350 -75.1947 281° West  Level FlightAware Approximate
02:16PM 40.5468 -75.2773 281° West  Level FlightAware Approximate
02:17PM 40.5500 -75.3610 270° West  Level FlightAware Approximate
02:18PM 40.5540 -75.4445 281° West  Level FlightAware Approximate
02:19PM 40.5658 -75.5271 281° West  Level FlightAware Approximate
02:20PM 40.5667 -75.6111 270° West  Level FlightAware Approximate
02:21PM 40.5716 -75.6735 57° Northeast  Level FlightAware Approximate
02:22PM 40.5902 -75.5959 66° East  Level FlightAware Approximate
02:23PM 40.6159 -75.5189 66° East  Level FlightAware Approximate
02:24PM 40.6456 -75.4444 62° Northeast  Level FlightAware Approximate
02:25PM 40.6500 -75.4333 62° Northeast  Level FlightAware Approximate
02:26PM 40.6524 -75.4404 62° Northeast  Level Estimated
02:27PM 40.6500 -75.4333 62° Northeast  Level FlightAware Approximate
02:28PM 40.6524 -75.4404 62° Northeast  Level Estimated